Flight Track Log - Related Links

Times and Time Zones

All times are in EDT time to prevent confusion due to time zone crossing. See the SWA3385 flight status page for this flight to view local times or setup timezone preferences in your user account.

Time Position Orientation Groundspeed Altitude Reporting Facility
EDT Latitude Longitude Course Direction KTS MPH feet Rate Location/Type
Fri 06:41:00 PM 33.9500 -118.4833 54° Northeast 185 213 1,900  Level Southern California TRACON
Fri 06:42:00 PM 33.9333 -118.5500 253° West 243 280 4,200 2,862 Climbing Southern California TRACON
Fri 06:43:10 PM 33.8783 -118.5475 178° South 249 287 8,100 3,000 Climbing Los Angeles Center
Fri 06:44:12 PM 33.9131 -118.4708 61° Northeast 266 306 10,800 2,468 Climbing Los Angeles Center
Fri 06:45:14 PM 33.9631 -118.3814 56° Northeast 323 372 13,200 2,516 Climbing Los Angeles Center
Fri 06:46:00 PM 34.2853 -117.7967 54° Northeast  Level FlightAware Approximate
Fri 06:46:16 PM 34.0172 -118.2850 56° Northeast 342 394 16,000  Level Los Angeles Center
Fri 06:47:18 PM 34.0750 -118.1825 56° Northeast 364 419 18,700 2,661 Climbing Los Angeles Center
Fri 06:48:20 PM 34.1344 -118.0769 56° Northeast 377 434 21,500 2,613 Climbing Los Angeles Center
Fri 06:49:22 PM 34.2100 -117.9442 55° Northeast 396 456 24,100 2,177 Climbing Los Angeles Center
Fri 06:50:24 PM 34.2742 -117.8292 56° Northeast 412 474 26,000 1,839 Climbing Los Angeles Center
Fri 06:51:26 PM 34.3403 -117.7097 56° Northeast 425 489 27,900 1,790 Climbing Los Angeles Center
Fri 06:52:28 PM 34.4089 -117.5867 56° Northeast 435 501 29,700 2,112 Climbing Los Angeles Center
Fri 06:53:31 PM 34.4781 -117.4689 55° Northeast 434 499 32,300 2,304 Climbing Los Angeles Center
Fri 06:54:33 PM 34.5531 -117.3683 48° Northeast 414 476 34,500 1,790 Climbing Los Angeles Center
Fri 06:55:35 PM 34.6383 -117.2456 50° Northeast 402 463 36,000 1,452 Climbing Los Angeles Center
Fri 06:56:37 PM 34.7108 -117.1436 49° Northeast 402 463 37,500 1,210 Climbing Los Angeles Center
Fri 06:57:39 PM 34.7814 -117.0433 49° Northeast 398 458 38,500 726 Climbing Los Angeles Center
Fri 06:58:41 PM 34.8525 -116.9428 49° Northeast 396 456 39,000 242 Climbing Los Angeles Center
Fri 06:59:43 PM 34.9233 -116.8414 50° Northeast 396 456 39,000  Level Los Angeles Center
Fri 07:00:45 PM 35.0083 -116.7186 50° Northeast 397 457 39,000  Level Los Angeles Center
Fri 07:01:47 PM 35.0811 -116.6167 49° Northeast 400 460 39,000  Level Los Angeles Center
Fri 07:03:02 PM 35.1658 -116.4947 50° Northeast 397 457 39,000  Level Los Angeles Center
Fri 07:04:04 PM 35.2378 -116.3933 49° Northeast 395 455 39,000  Level Los Angeles Center
Fri 07:05:06 PM 35.3092 -116.2906 50° Northeast 396 456 39,000  Level Los Angeles Center
Fri 07:06:08 PM 35.3933 -116.1658 50° Northeast 398 458 39,000  Level Los Angeles Center
Fri 07:07:10 PM 35.4669 -116.0619 49° Northeast 402 463 39,000  Level Los Angeles Center
Fri 07:08:12 PM 35.5400 -115.9561 50° Northeast 404 465 39,000  Level Los Angeles Center
Fri 07:09:14 PM 35.6028 -115.8172 61° Northeast 410 472 39,000  Level Los Angeles Center
Fri 07:10:16 PM 35.6531 -115.6903 64° Northeast 415 478 39,000  Level Los Angeles Center
Fri 07:11:18 PM 35.7025 -115.5625 64° Northeast 414 476 39,000  Level Los Angeles Center
Fri 07:12:20 PM 35.7531 -115.4356 64° Northeast 416 479 39,000  Level Los Angeles Center
Fri 07:13:23 PM 35.8033 -115.3064 64° Northeast 419 482 39,000  Level Los Angeles Center
Fri 07:14:25 PM 35.8603 -115.1550 65° Northeast 408 470 39,000  Level Los Angeles Center
Fri 07:15:27 PM 35.9103 -115.0253 65° Northeast 418 481 39,000  Level Los Angeles Center
Fri 07:16:29 PM 35.9603 -114.8958 64° Northeast 421 484 39,000  Level Los Angeles Center
Fri 07:17:31 PM 36.0111 -114.7647 64° Northeast 423 487 39,000  Level Los Angeles Center
Fri 07:18:33 PM 36.0600 -114.6350 65° Northeast 420 483 39,000  Level Los Angeles Center
Fri 07:19:35 PM 36.1094 -114.5047 65° Northeast 420 483 39,000  Level Los Angeles Center
Fri 07:20:37 PM 36.1681 -114.3489 65° Northeast 417 480 39,000  Level Los Angeles Center
Fri 07:21:40 PM 36.2175 -114.2192 65° Northeast 417 480 39,000  Level Los Angeles Center
Fri 07:22:41 PM 36.2653 -114.0881 66° East 420 483 39,000  Level Los Angeles Center
Fri 07:23:43 PM 36.3144 -113.9581 65° Northeast 418 481 39,000  Level Los Angeles Center
Fri 07:24:45 PM 36.3631 -113.8269 65° Northeast 420 483 39,000  Level Los Angeles Center
Fri 07:25:48 PM 36.4219 -113.6697 65° Northeast 419 482 39,000  Level Los Angeles Center
Fri 07:26:50 PM 36.4708 -113.5375 65° Northeast 421 484 39,000  Level Los Angeles Center
Fri 07:27:52 PM 36.5150 -113.4219 65° Northeast 417 480 39,000  Level Los Angeles Center
Fri 07:28:54 PM 36.5969 -113.2828 54° Northeast 416 479 39,000  Level Los Angeles Center
Fri 07:29:56 PM 36.6633 -113.1667 54° Northeast 414 476 39,000  Level Los Angeles Center
Fri 07:30:58 PM 36.7303 -113.0497 54° Northeast 416 479 39,000  Level Los Angeles Center
Fri 07:32:00 PM 36.7989 -112.9303 54° Northeast 422 486 39,000  Level Los Angeles Center
Fri 07:33:02 PM 36.8653 -112.8106 55° Northeast 423 487 39,000  Level Los Angeles Center
Fri 07:34:04 PM 36.9456 -112.6667 55° Northeast 423 487 39,000  Level Los Angeles Center
Fri 07:35:06 PM 37.0122 -112.5478 55° Northeast 422 486 39,000  Level Los Angeles Center
Fri 07:36:08 PM 37.0794 -112.4286 55° Northeast 422 486 39,000  Level Los Angeles Center
Fri 07:37:10 PM 37.1322 -112.2983 63° Northeast 426 490 39,000  Level Los Angeles Center
Fri 07:38:13 PM 37.1747 -112.1617 69° East 426 490 39,000  Level Los Angeles Center
Fri 07:39:15 PM 37.2242 -111.9964 69° East 424 488 39,000  Level Los Angeles Center
Fri 07:40:17 PM 37.2667 -111.8594 69° East 423 487 39,000  Level Los Angeles Center
Fri 07:40:32 PM 37.2758 -111.8311 68° East 423 487 39,000  Level Denver Center
Fri 07:41:34 PM 37.3139 -111.6967 70° East 414 476 39,000  Level Denver Center
Fri 07:42:36 PM 37.3558 -111.5586 69° East 424 488 39,000  Level Denver Center
Fri 07:43:38 PM 37.4064 -111.3892 69° East 435 501 39,000  Level Denver Center
Fri 07:44:40 PM 37.4478 -111.2447 70° East 440 506 39,000  Level Denver Center
Fri 07:45:41 PM 37.4911 -111.0992 69° East 444 511 39,000  Level Denver Center
Fri 07:46:43 PM 37.5325 -110.9558 70° East 439 505 39,000  Level Denver Center
Fri 07:47:45 PM 37.5756 -110.8131 69° East 438 504 39,000  Level Denver Center
Fri 07:48:47 PM 37.6153 -110.6722 70° East 430 495 39,000  Level Denver Center
Fri 07:49:49 PM 37.6608 -110.5106 70° East 435 501 39,000  Level Denver Center
Fri 07:50:51 PM 37.7006 -110.3711 70° East 440 506 39,000  Level Denver Center
Fri 07:51:53 PM 37.7469 -110.2108 70° East 433 498 39,000  Level Denver Center
Fri 07:52:55 PM 37.7839 -110.0792 70° East 419 482 39,000  Level Denver Center
Fri 07:53:57 PM 37.8281 -109.9192 71° East 430 495 39,000  Level Denver Center
Fri 07:54:59 PM 37.8669 -109.7806 70° East 435 501 39,000  Level Denver Center
Fri 07:56:01 PM 37.9139 -109.6142 70° East 448 516 39,000  Level Denver Center
Fri 07:57:03 PM 37.9519 -109.4719 71° East 445 512 39,000  Level Denver Center
Fri 07:58:05 PM 37.9969 -109.3122 70° East 432 497 39,000  Level Denver Center
Fri 07:59:07 PM 38.0458 -109.1792 65° Northeast 435 501 39,000  Level Denver Center
Fri 08:00:09 PM 38.1014 -109.0328 64° Northeast 441 507 39,000  Level Denver Center
Fri 08:01:11 PM 38.1514 -108.9017 64° Northeast 434 499 39,000  Level Denver Center
Fri 08:02:13 PM 38.2100 -108.7481 64° Northeast 434 499 39,000  Level Denver Center
Fri 08:03:15 PM 38.2589 -108.6117 65° Northeast 439 505 39,000  Level Denver Center
Fri 08:04:17 PM 38.3094 -108.4533 68° East 434 499 39,000  Level Denver Center
Fri 08:05:18 PM 38.3528 -108.3181 68° East 433 498 39,000  Level Denver Center
Fri 08:06:20 PM 38.4033 -108.1603 68° East 433 498 39,000 -290 Level Denver Center
Fri 08:07:22 PM 38.4458 -108.0236 68° East 436 502 38,400 -750 Descending Denver Center
Fri 08:08:36 PM 38.4961 -107.8636 68° East 436 502 37,300 -1,007 Descending Denver Center
Fri 08:09:39 PM 38.5525 -107.6842 68° East 429 494 36,100 -1,065 Descending Denver Center
Fri 08:10:40 PM 38.5928 -107.5506 69° East 424 488 35,100 -927 Descending Denver Center
Fri 08:11:42 PM 38.6328 -107.4197 69° East 416 479 34,200 -968 Descending Denver Center
Fri 08:12:44 PM 38.6806 -107.2683 68° East 412 474 33,100 -581 Descending Denver Center
Fri 08:13:46 PM 38.7175 -107.1417 69° East 413 475 33,000 -48 Descending Denver Center
Fri 08:14:48 PM 38.7597 -107.0050 68° East 415 478 33,000  Level Denver Center
Fri 08:15:50 PM 38.8086 -106.8406 69° East 414 476 33,000  Level Denver Center
Fri 08:16:51 PM 38.8506 -106.7025 69° East 416 479 33,000  Level Denver Center
Fri 08:17:53 PM 38.8900 -106.5672 69° East 413 475 33,000  Level Denver Center
Fri 08:18:55 PM 38.9358 -106.4133 69° East 414 476 33,000 -48 Level Denver Center
Fri 08:19:57 PM 38.9761 -106.2808 69° East 415 478 32,900 -919 Descending Denver Center
Fri 08:20:59 PM 39.0117 -106.1558 70° East 406 467 31,100 -2,049 Descending Denver Center
Fri 08:22:00 PM 39.0567 -106.0036 69° East 383 441 28,700 -2,098 Descending Denver Center
Fri 08:23:02 PM 39.0919 -105.8803 70° East 370 426 26,800 -1,887 Descending Denver Center
Fri 08:24:04 PM 39.1289 -105.7525 70° East 360 414 24,800 -1,839 Descending Denver Center
Fri 08:25:06 PM 39.1628 -105.6331 70° East 368 423 23,000 -1,790 Descending Denver Center
Fri 08:26:08 PM 39.1983 -105.5142 69° East 366 421 21,100 -1,951 Descending Denver Center
Fri 08:27:09 PM 39.2358 -105.3817 70° East 345 397 19,000 -1,415 Descending Denver Center
Fri 08:28:11 PM 39.2653 -105.2714 71° East 326 375 18,200 -968 Descending Denver Center
Fri 08:29:13 PM 39.2853 -105.1594 77° East 300 345 17,000 -1,306 Descending Denver Center
Fri 08:30:15 PM 39.3128 -105.0603 70° East 301 346 15,500 -1,597 Descending Denver Center
Fri 08:31:17 PM 39.3592 -104.9756 55° Northeast 291 335 13,700 -1,951 Descending Denver Center
Fri 08:32:18 PM 39.4139 -104.8881 51° Northeast 292 336 11,500 -1,805 Descending Denver Center
Fri 08:33:20 PM 39.4844 -104.8331 31° Northeast 293 337 10,000 -1,016 Descending Denver Center
Fri 08:34:22 PM 39.5506 -104.7797 32° Northeast 284 327 9,400 -532 Descending Denver Center
Fri 08:35:24 PM 39.6211 -104.7242 31° Northeast 278 320 8,900 -683 Descending Denver Center
Fri 08:36:25 PM 39.6792 -104.6792 31° Northeast 250 288 8,000 -878 Descending Denver Center
Fri 08:37:27 PM 39.7442 -104.6619 12° North 223 257 7,100 -871 Descending Denver Center
Fri 08:38:29 PM 39.7931 -104.6617 360° North 180 207 6,200 -823 Descending Denver Center
Fri 08:39:31 PM 39.8331 -104.6606 North 161 185 5,400 -774 Descending Denver Center
Fri 08:41:00 PM 39.8500 -104.6667 North  Level FlightAware Approximate
Fri 08:48:00 PM 39.8617 -104.6732 North  Level Estimated
Fri 08:49:00 PM 39.8617 -104.6732 North  Level Estimated

Login

Don't have an account? Register now (free) for customized features, flight alerts, and more!